createdAt,value
2019-01-31T00:02:06.934Z,55.77
2019-01-31T00:04:46.985Z,55.23
2019-01-31T00:07:53.133Z,55.87
2019-01-31T00:10:42.821Z,56.13
2019-01-31T00:13:30.646Z,52.80
2019-01-31T00:16:36.891Z,50.93
2019-01-31T00:19:42.827Z,57.93
2019-01-31T00:22:48.714Z,55.93
2019-01-31T00:25:54.706Z,60.10
2019-01-31T00:28:45.157Z,55.37
2019-01-31T00:31:51.397Z,57.37
2019-01-31T00:34:44.593Z,51.50
2019-01-31T00:37:37.200Z,54.10
2019-01-31T00:40:27.015Z,53.83
2019-01-31T00:43:32.968Z,53.37
2019-01-31T00:46:38.867Z,56.07
2019-01-31T00:49:28.236Z,52.90
2019-01-31T00:52:34.093Z,48.33
2019-01-31T00:55:28.210Z,53.73
2019-01-31T00:58:34.391Z,53.70
2019-01-31T01:01:08.641Z,53.03
2019-01-31T01:03:59.809Z,52.63
2019-01-31T01:07:05.786Z,48.50
2019-01-31T01:09:54.893Z,54.53
2019-01-31T01:12:47.047Z,52.93
2019-01-31T01:15:40.435Z,52.70
2019-01-31T01:18:29.237Z,49.93
2019-01-31T01:21:18.871Z,49.50
2019-01-31T01:24:08.056Z,54.03
2019-01-31T01:27:13.958Z,43.17
2019-01-31T01:30:14.003Z,51.77
2019-01-31T01:33:03.196Z,42.07
2019-01-31T01:35:53.489Z,47.10
2019-01-31T01:38:59.355Z,45.53
2019-01-31T01:42:05.363Z,49.23
2019-01-31T01:45:11.255Z,49.80
2019-01-31T01:48:17.439Z,47.00
2019-01-31T01:51:06.941Z,52.83
2019-01-31T01:54:12.924Z,44.67
2019-01-31T01:57:18.781Z,43.43
2019-01-31T02:00:25.041Z,49.37
2019-01-31T02:03:30.897Z,43.13
2019-01-31T02:06:36.820Z,42.53
2019-01-31T02:09:42.994Z,43.87
2019-01-31T02:12:33.615Z,45.67
2019-01-31T02:15:27.717Z,44.10
2019-01-31T02:18:17.628Z,36.50
2019-01-31T02:21:23.489Z,44.13
2019-01-31T02:24:22.195Z,45.30
2019-01-31T02:27:28.063Z,44.00
2019-01-31T02:30:33.971Z,41.73
2019-01-31T02:33:24.163Z,43.33
2019-01-31T02:36:30.467Z,41.90
2019-01-31T02:39:43.170Z,43.83
2019-01-31T02:42:44.653Z,40.00
2019-01-31T02:45:50.797Z,42.40
2019-01-31T02:48:49.548Z,41.40
2019-01-31T02:51:55.487Z,40.23
2019-01-31T02:54:47.855Z,40.03
2019-01-31T03:01:49.644Z,37.03
2019-01-31T03:04:55.823Z,36.90
2019-01-31T03:08:01.744Z,38.27
2019-01-31T03:10:59.347Z,40.33
2019-01-31T03:14:10.182Z,39.17
2019-01-31T03:17:13.394Z,41.33
2019-01-31T03:20:19.716Z,40.33
2019-01-31T03:23:25.646Z,38.97
2019-01-31T03:26:31.623Z,39.70
2019-01-31T03:29:26.833Z,39.00
2019-01-31T03:32:32.760Z,39.53
2019-01-31T03:35:22.590Z,41.47
2019-01-31T03:38:28.566Z,41.70
2019-01-31T03:41:34.714Z,37.43
2019-01-31T03:44:40.698Z,43.27
2019-01-31T03:47:46.563Z,36.33
2019-01-31T03:50:38.708Z,39.20
2019-01-31T03:53:18.455Z,37.33
2019-01-31T03:56:24.429Z,38.00
2019-01-31T03:58:56.697Z,37.83
2019-01-31T04:02:02.636Z,40.23
2019-01-31T04:04:33.670Z,37.20
2019-01-31T04:07:01.062Z,38.03
2019-01-31T04:12:22.814Z,36.00
2019-01-31T04:14:49.585Z,36.87
2019-01-31T04:17:16.326Z,36.47
2019-01-31T04:19:43.461Z,37.70
2019-01-31T04:22:10.332Z,35.60
2019-01-31T04:24:37.363Z,40.83
2019-01-31T04:27:04.233Z,41.27
2019-01-31T04:29:31.172Z,39.77
2019-01-31T04:31:58.292Z,37.70
2019-01-31T04:34:25.155Z,36.10
2019-01-31T04:36:52.183Z,41.17
2019-01-31T04:39:19.022Z,41.30
2019-01-31T04:41:46.244Z,38.63
2019-01-31T04:44:13.120Z,39.70
2019-01-31T04:46:40.513Z,38.23
2019-01-31T04:49:07.915Z,38.13
2019-01-31T04:51:34.906Z,40.57
2019-01-31T04:54:01.612Z,35.50
2019-01-31T04:56:28.417Z,35.90
2019-01-31T04:58:55.149Z,40.00
2019-01-31T05:01:41.637Z,39.00
2019-01-31T05:04:08.371Z,36.03
2019-01-31T05:06:35.267Z,36.97
2019-01-31T05:11:37.189Z,36.37
2019-01-31T05:14:04.302Z,33.43
2019-01-31T05:16:51.753Z,33.67
2019-01-31T05:19:19.263Z,36.73
2019-01-31T05:21:46.120Z,38.40
2019-01-31T05:24:13.064Z,38.87
2019-01-31T05:26:39.848Z,39.63
2019-01-31T05:29:06.752Z,32.50
2019-01-31T05:31:33.646Z,34.63
2019-01-31T05:34:00.439Z,37.17
2019-01-31T05:36:27.477Z,38.00
2019-01-31T05:38:54.298Z,39.50
2019-01-31T05:41:21.293Z,35.90
2019-01-31T05:43:48.056Z,39.10
2019-01-31T05:46:14.892Z,33.63
2019-01-31T05:48:41.634Z,34.13
2019-01-31T05:51:28.117Z,36.23
2019-01-31T05:53:54.849Z,36.03
2019-01-31T05:56:21.663Z,36.43
2019-01-31T05:59:08.106Z,36.73
2019-01-31T06:01:34.899Z,37.30
2019-01-31T06:04:01.635Z,38.17
2019-01-31T06:06:28.599Z,36.17
2019-01-31T06:08:55.479Z,37.83
2019-01-31T06:11:22.215Z,37.80
2019-01-31T06:13:49.062Z,38.13
2019-01-31T06:16:16.094Z,42.27
2019-01-31T06:18:43.116Z,38.77
2019-01-31T06:21:09.947Z,35.17
2019-01-31T06:23:36.690Z,37.00
2019-01-31T06:26:03.448Z,34.13
2019-01-31T06:28:30.375Z,34.40
2019-01-31T06:30:57.117Z,34.30
2019-01-31T06:33:23.765Z,33.87
2019-01-31T06:35:50.602Z,34.40
2019-01-31T06:38:37.098Z,38.77
2019-01-31T06:41:04.016Z,36.43
2019-01-31T06:43:30.761Z,36.90
2019-01-31T06:45:57.544Z,41.50
2019-01-31T06:48:24.338Z,34.47
2019-01-31T06:50:51.075Z,35.10
2019-01-31T06:53:17.853Z,35.57
2019-01-31T06:55:45.004Z,36.67
2019-01-31T06:58:24.140Z,40.83
2019-01-31T07:00:51.066Z,35.00
2019-01-31T07:03:17.903Z,36.47
2019-01-31T07:05:44.662Z,41.13
2019-01-31T07:08:11.549Z,38.37
2019-01-31T07:10:38.399Z,40.83
2019-01-31T07:13:05.150Z,39.47
2019-01-31T07:15:32.087Z,39.90
2019-01-31T07:17:58.848Z,45.13
2019-01-31T07:20:25.698Z,40.60
2019-01-31T07:22:52.523Z,37.23
2019-01-31T07:25:21.447Z,42.73
2019-01-31T07:27:48.290Z,38.10
2019-01-31T07:30:15.452Z,41.37
2019-01-31T07:32:42.448Z,37.47
2019-01-31T07:35:10.948Z,36.00
2019-01-31T07:37:38.148Z,36.37
2019-01-31T07:40:46.558Z,39.10
2019-01-31T07:43:14.033Z,40.47
2019-01-31T07:45:40.788Z,39.50
2019-01-31T07:48:07.739Z,41.37
2019-01-31T07:50:34.610Z,38.57
2019-01-31T07:53:01.785Z,35.70
2019-01-31T07:55:28.439Z,40.93
2019-01-31T07:57:55.308Z,38.67
2019-01-31T08:00:22.370Z,37.17
2019-01-31T08:03:01.906Z,41.13
2019-01-31T08:05:29.130Z,35.93
2019-01-31T08:08:15.732Z,35.87
2019-01-31T08:10:42.525Z,40.43
2019-01-31T08:13:29.008Z,37.93
2019-01-31T08:15:55.842Z,43.23
2019-01-31T08:18:22.876Z,37.90
2019-01-31T08:20:49.867Z,43.10
2019-01-31T08:23:16.611Z,37.73
2019-01-31T08:25:43.540Z,37.97
2019-01-31T08:28:10.856Z,36.50
2019-01-31T08:30:39.675Z,39.67
2019-01-31T08:33:06.820Z,36.67
2019-01-31T08:35:34.223Z,41.07
2019-01-31T08:38:00.869Z,37.27
2019-01-31T08:40:47.357Z,35.17
2019-01-31T08:43:14.065Z,39.83
2019-01-31T08:46:00.569Z,38.73
2019-01-31T08:48:27.415Z,38.20
2019-01-31T08:50:54.448Z,39.17
2019-01-31T08:53:21.382Z,38.47
2019-01-31T08:55:48.340Z,33.20
2019-01-31T08:58:15.996Z,35.73
2019-01-31T09:00:44.398Z,34.97
2019-01-31T09:03:12.121Z,35.47
2019-01-31T09:05:52.235Z,35.67
2019-01-31T09:08:19.069Z,31.83
2019-01-31T09:10:47.644Z,35.23
2019-01-31T09:13:15.193Z,32.33
2019-01-31T09:15:43.484Z,31.00
2019-01-31T09:18:10.521Z,33.17
2019-01-31T09:21:16.844Z,30.67
2019-01-31T09:24:23.145Z,34.20
2019-01-31T09:27:29.294Z,32.67
2019-01-31T09:30:23.379Z,34.40
2019-01-31T09:33:29.376Z,28.07
2019-01-31T09:36:35.523Z,32.20
2019-01-31T09:39:41.469Z,32.03
2019-01-31T09:42:12.598Z,30.13
2019-01-31T09:45:18.547Z,29.60
2019-01-31T09:48:24.392Z,32.27
2019-01-31T09:51:30.395Z,31.00
2019-01-31T09:54:10.445Z,28.83
2019-01-31T09:57:01.591Z,26.27
2019-01-31T10:00:07.485Z,28.13
2019-01-31T10:03:13.496Z,25.90
2019-01-31T10:06:19.362Z,24.60
2019-01-31T10:09:25.407Z,26.00
2019-01-31T10:12:37.883Z,24.40
2019-01-31T10:15:39.217Z,24.13
2019-01-31T10:18:32.926Z,22.47
2019-01-31T10:21:26.487Z,24.70
2019-01-31T10:24:32.380Z,23.83
2019-01-31T10:27:38.326Z,20.87
2019-01-31T10:30:44.190Z,24.17
2019-01-31T10:33:34.997Z,18.77
2019-01-31T10:36:24.186Z,21.27
2019-01-31T10:39:30.172Z,21.73
2019-01-31T10:42:20.949Z,22.43
2019-01-31T10:45:26.934Z,22.40
2019-01-31T10:48:32.795Z,19.07
2019-01-31T10:51:38.724Z,18.00
2019-01-31T10:54:44.583Z,20.13
2019-01-31T10:57:41.062Z,20.53
2019-01-31T11:00:47.207Z,18.80
2019-01-31T11:03:41.402Z,17.67
2019-01-31T11:06:47.414Z,16.30
2019-01-31T11:09:53.741Z,10.97
2019-01-31T11:13:00.984Z,8.83
2019-01-31T11:16:06.946Z,8.63
2019-01-31T11:19:05.337Z,9.13
2019-01-31T11:21:59.608Z,10.93
2019-01-31T11:25:05.789Z,12.03
2019-01-31T11:28:11.760Z,11.30
2019-01-31T11:31:17.769Z,11.87
2019-01-31T11:34:32.610Z,8.90
2019-01-31T11:37:31.509Z,9.50
2019-01-31T11:40:37.445Z,9.27
2019-01-31T11:43:43.366Z,11.07
2019-01-31T11:52:51.751Z,10.17
2019-01-31T11:55:57.617Z,10.50
2019-01-31T11:58:48.354Z,9.87
2019-01-31T12:01:15.077Z,11.00
2019-01-31T12:03:42.235Z,10.80
2019-01-31T12:06:09.044Z,14.17
2019-01-31T12:08:36.027Z,11.40
2019-01-31T12:11:02.917Z,11.50
2019-01-31T12:13:29.767Z,11.53
2019-01-31T12:15:56.511Z,10.90
2019-01-31T12:18:23.251Z,9.43
2019-01-31T12:20:50.053Z,11.17
2019-01-31T12:23:16.843Z,9.40
2019-01-31T12:25:43.588Z,9.47
2019-01-31T12:28:10.523Z,10.23
2019-01-31T12:30:37.259Z,11.93
2019-01-31T12:33:04.086Z,10.50
2019-01-31T12:35:30.948Z,11.97
2019-01-31T12:37:57.693Z,11.47
2019-01-31T12:40:24.529Z,13.20
2019-01-31T12:42:51.452Z,12.07
2019-01-31T12:45:18.888Z,13.03
2019-01-31T12:47:45.617Z,14.60
2019-01-31T12:50:15.851Z,15.57
2019-01-31T12:52:43.002Z,15.70
2019-01-31T12:55:09.845Z,17.07
2019-01-31T12:57:37.041Z,13.20
2019-01-31T13:00:45.806Z,15.10
2019-01-31T13:03:13.918Z,16.53
2019-01-31T13:05:41.033Z,16.43
2019-01-31T13:08:07.773Z,16.00
2019-01-31T13:10:35.016Z,15.27
2019-01-31T13:13:14.882Z,16.67
2019-01-31T13:15:41.792Z,18.67
2019-01-31T13:18:08.722Z,16.23
2019-01-31T13:20:35.460Z,18.47
2019-01-31T13:23:02.345Z,16.53
2019-01-31T13:25:29.293Z,15.90
2019-01-31T13:27:57.565Z,14.97
2019-01-31T13:30:24.764Z,14.67
2019-01-31T13:32:52.740Z,15.77
2019-01-31T13:35:19.477Z,15.50
2019-01-31T13:37:46.376Z,17.67
2019-01-31T13:40:15.512Z,15.03
2019-01-31T13:42:42.517Z,13.20
2019-01-31T13:45:10.423Z,15.83
2019-01-31T13:47:37.207Z,14.10
2019-01-31T13:50:05.305Z,14.43
2019-01-31T13:52:32.385Z,15.90
2019-01-31T13:54:59.448Z,16.30
2019-01-31T13:57:26.288Z,18.53
2019-01-31T13:59:54.241Z,12.77
2019-01-31T14:02:21.068Z,15.43
2019-01-31T14:04:49.445Z,17.17
2019-01-31T14:07:16.285Z,14.70
2019-01-31T14:09:43.180Z,18.33
2019-01-31T14:12:09.921Z,18.43
2019-01-31T14:14:36.781Z,11.53
2019-01-31T14:17:03.613Z,14.87
2019-01-31T14:19:30.471Z,13.10
2019-01-31T14:21:57.476Z,14.87
2019-01-31T14:24:24.703Z,14.53
2019-01-31T14:26:51.899Z,14.93
2019-01-31T14:29:18.950Z,13.43
2019-01-31T14:31:45.680Z,12.07
2019-01-31T14:34:12.417Z,13.57
2019-01-31T14:39:33.547Z,14.20
2019-01-31T14:42:00.595Z,14.20
2019-01-31T14:44:27.322Z,14.03
2019-01-31T14:46:54.245Z,14.27
2019-01-31T14:49:20.972Z,14.93
2019-01-31T14:51:47.741Z,14.87
2019-01-31T14:54:14.835Z,12.27
2019-01-31T14:56:41.661Z,14.80
2019-01-31T14:59:11.286Z,15.13
2019-01-31T15:01:38.159Z,12.03
2019-01-31T15:04:06.002Z,12.83
2019-01-31T15:06:54.837Z,11.70
2019-01-31T15:09:21.846Z,11.13
2019-01-31T15:11:48.772Z,11.47
2019-01-31T15:14:15.954Z,12.70
2019-01-31T15:23:08.079Z,13.23
2019-01-31T15:25:34.819Z,11.40
2019-01-31T15:28:02.196Z,11.53
2019-01-31T15:30:31.415Z,13.10
2019-01-31T15:32:58.848Z,14.67
2019-01-31T15:35:26.743Z,14.10
2019-01-31T15:37:55.260Z,11.40
2019-01-31T15:41:04.792Z,14.30
2019-01-31T15:43:31.955Z,15.27
2019-01-31T15:45:59.210Z,13.50
2019-01-31T15:48:25.941Z,12.63
2019-01-31T15:50:52.864Z,12.70
2019-01-31T15:53:22.103Z,14.57
2019-01-31T15:58:45.796Z,11.73
2019-01-31T16:01:12.995Z,12.80
2019-01-31T16:03:40.099Z,15.20
2019-01-31T16:06:07.285Z,15.97
2019-01-31T16:08:34.147Z,18.27
2019-01-31T16:11:00.882Z,16.30
2019-01-31T16:13:47.352Z,14.43
2019-01-31T16:16:14.073Z,15.53
2019-01-31T16:18:43.825Z,15.07
2019-01-31T16:21:11.346Z,15.67
2019-01-31T16:23:38.083Z,22.47
2019-01-31T16:26:04.822Z,17.77
2019-01-31T16:28:31.658Z,16.50
2019-01-31T16:30:58.501Z,15.03
2019-01-31T16:33:25.374Z,15.17
2019-01-31T16:35:53.846Z,15.80
2019-01-31T16:38:23.995Z,13.90
2019-01-31T16:40:50.378Z,18.13
2019-01-31T16:43:17.375Z,16.60
2019-01-31T16:46:03.751Z,17.60
2019-01-31T16:48:33.048Z,15.13
2019-01-31T17:02:52.132Z,21.67
2019-01-31T17:05:21.005Z,19.73
2019-01-31T17:07:47.876Z,20.50
2019-01-31T17:10:15.237Z,20.63
2019-01-31T17:12:42.340Z,19.50
2019-01-31T17:15:17.564Z,18.27
2019-01-31T17:17:38.390Z,20.43
2019-01-31T17:20:08.828Z,21.73
2019-01-31T17:22:36.017Z,22.23
2019-01-31T17:28:16.823Z,23.00
2019-01-31T17:30:43.733Z,24.53
2019-01-31T17:33:10.616Z,24.03
2019-01-31T17:35:37.610Z,24.83
2019-01-31T17:38:04.606Z,24.60
2019-01-31T17:40:33.813Z,25.07
2019-01-31T17:43:01.000Z,22.40
2019-01-31T17:45:30.573Z,23.03
2019-01-31T17:47:56.801Z,20.40
2019-01-31T17:50:24.496Z,22.13
2019-01-31T17:52:51.930Z,26.20
2019-01-31T17:55:19.751Z,26.23
2019-01-31T17:57:47.278Z,28.20
2019-01-31T18:00:53.721Z,26.47
2019-01-31T18:03:21.309Z,28.53
2019-01-31T18:05:48.710Z,28.97
2019-01-31T18:08:36.211Z,28.60
2019-01-31T18:11:03.240Z,28.57
2019-01-31T18:13:30.141Z,28.13
2019-01-31T18:15:57.189Z,39.27
2019-01-31T18:18:24.059Z,35.23
2019-01-31T18:21:03.583Z,33.70
2019-01-31T18:23:43.919Z,38.50
2019-01-31T18:26:11.382Z,36.97
2019-01-31T18:28:38.297Z,36.97
2019-01-31T18:31:05.321Z,33.37
2019-01-31T18:33:32.372Z,31.90
2019-01-31T18:35:59.266Z,34.27
2019-01-31T18:38:26.312Z,34.33
2019-01-31T18:40:53.607Z,32.23
2019-01-31T18:43:21.413Z,33.63
2019-01-31T18:45:53.357Z,35.63
2019-01-31T18:48:37.365Z,33.10
2019-01-31T18:51:04.397Z,34.30
2019-01-31T18:53:31.209Z,32.80
2019-01-31T18:56:17.770Z,31.23
2019-01-31T18:59:04.212Z,34.90
2019-01-31T19:01:31.255Z,34.07
2019-01-31T19:03:58.170Z,35.77
2019-01-31T19:06:25.957Z,33.33
2019-01-31T19:08:53.120Z,35.73
2019-01-31T19:11:19.907Z,44.63
2019-01-31T19:13:46.813Z,44.87
2019-01-31T19:16:13.669Z,43.40
2019-01-31T19:18:40.713Z,44.43
2019-01-31T19:21:07.750Z,42.57
2019-01-31T19:23:34.849Z,44.13
2019-01-31T19:26:01.845Z,45.33
2019-01-31T19:28:48.526Z,52.53
2019-01-31T19:31:15.425Z,46.37
2019-01-31T19:33:42.460Z,44.23
2019-01-31T19:36:09.798Z,44.63
2019-01-31T19:38:36.703Z,43.97
2019-01-31T19:41:03.823Z,45.70
2019-01-31T19:46:15.775Z,48.97
2019-01-31T19:48:34.285Z,50.30
2019-01-31T19:51:01.557Z,51.30
2019-01-31T19:53:30.960Z,47.77
2019-01-31T19:55:57.755Z,49.03
2019-01-31T19:58:27.014Z,54.20
2019-01-31T20:00:54.430Z,55.93
2019-01-31T20:03:21.940Z,56.70
2019-01-31T20:05:48.990Z,58.63
2019-01-31T20:08:15.737Z,56.30
2019-01-31T20:10:42.952Z,61.90
2019-01-31T20:13:09.710Z,61.67
2019-01-31T20:15:38.144Z,60.40
2019-01-31T20:18:05.306Z,60.90
2019-01-31T20:20:32.201Z,61.40
2019-01-31T20:23:18.660Z,66.17
2019-01-31T20:25:45.591Z,68.67
2019-01-31T20:28:25.052Z,68.43
2019-01-31T20:30:52.103Z,67.80
2019-01-31T20:33:19.000Z,62.17
2019-01-31T20:35:45.890Z,66.60
2019-01-31T20:38:12.681Z,57.43
2019-01-31T20:40:41.243Z,69.93
2019-01-31T20:43:08.367Z,69.93
2019-01-31T20:45:35.498Z,68.90
2019-01-31T20:48:02.426Z,66.90
2019-01-31T20:50:31.320Z,72.97
2019-01-31T20:52:58.200Z,65.57
2019-01-31T20:55:25.236Z,65.60
2019-01-31T20:57:52.395Z,68.77
2019-01-31T21:00:43.139Z,68.43
2019-01-31T21:03:10.684Z,75.73
2019-01-31T21:05:37.641Z,72.27
2019-01-31T21:08:46.069Z,69.00
2019-01-31T21:11:12.908Z,67.47
2019-01-31T21:13:40.577Z,65.40
2019-01-31T21:16:07.623Z,67.40
2019-01-31T21:18:34.609Z,69.87
2019-01-31T21:21:01.983Z,70.87
2019-01-31T21:23:29.187Z,73.63
2019-01-31T21:25:56.074Z,64.37
2019-01-31T21:28:22.823Z,72.37
2019-01-31T21:30:49.738Z,67.67
2019-01-31T21:33:17.153Z,75.20
2019-01-31T21:35:44.413Z,68.63
2019-01-31T21:38:11.849Z,72.03
2019-01-31T21:40:39.029Z,67.57
2019-01-31T21:43:25.362Z,69.03
2019-01-31T21:45:52.110Z,68.33
2019-01-31T21:48:18.865Z,73.23
2019-01-31T21:50:45.695Z,71.93
2019-01-31T21:53:13.520Z,70.17
2019-01-31T21:55:41.882Z,72.37
2019-01-31T21:58:09.194Z,70.37
2019-01-31T22:00:55.457Z,78.07
2019-01-31T22:03:22.462Z,78.60
2019-01-31T22:05:49.592Z,78.80
2019-01-31T22:08:16.878Z,76.43
2019-01-31T22:10:43.859Z,84.53
2019-01-31T22:13:10.511Z,74.00
2019-01-31T22:15:37.382Z,78.37
2019-01-31T22:18:05.328Z,74.53
2019-01-31T22:20:32.170Z,76.37
2019-01-31T22:22:58.941Z,79.47
2019-01-31T22:25:26.136Z,81.83
2019-01-31T22:28:12.840Z,75.43
2019-01-31T22:30:39.817Z,87.13
2019-01-31T22:33:07.766Z,80.03
2019-01-31T22:35:34.612Z,83.20
2019-01-31T22:38:01.518Z,82.20
2019-01-31T22:40:28.271Z,81.20
2019-01-31T22:42:55.014Z,78.77
2019-01-31T22:45:41.532Z,79.93
2019-01-31T22:48:08.676Z,90.63
2019-01-31T22:50:35.658Z,86.47
2019-01-31T22:53:22.500Z,78.80
2019-01-31T22:55:49.361Z,82.93
2019-01-31T22:58:16.219Z,78.33
2019-01-31T23:01:42.111Z,85.23
2019-01-31T23:04:08.856Z,84.87
2019-01-31T23:06:35.608Z,80.77
2019-01-31T23:11:57.548Z,85.27
2019-01-31T23:14:24.562Z,78.77
2019-01-31T23:16:51.498Z,81.47
2019-01-31T23:19:18.482Z,78.27
2019-01-31T23:21:45.320Z,85.03
2019-01-31T23:24:12.179Z,84.23
2019-01-31T23:26:39.072Z,82.63
2019-01-31T23:29:05.942Z,83.87
2019-01-31T23:34:29.650Z,89.10
2019-01-31T23:36:56.303Z,91.20
2019-01-31T23:39:23.045Z,84.67
2019-01-31T23:41:50.191Z,85.47
2019-01-31T23:44:17.276Z,86.70
2019-01-31T23:46:44.023Z,92.20
2019-01-31T23:49:11.202Z,85.23
2019-01-31T23:51:37.955Z,87.80
2019-01-31T23:56:59.435Z,86.60
2019-01-31T23:59:26.392Z,78.07
